sensor_id;sensor_type;location;lat;lon;timestamp;temperature;humidity
37052;DHT22;22964;52.272;13.356;2023-02-28T00:00:34;6.20;58.80
37052;DHT22;22964;52.272;13.356;2023-02-28T00:03:00;6.20;58.80
37052;DHT22;22964;52.272;13.356;2023-02-28T00:05:27;6.20;59.60
37052;DHT22;22964;52.272;13.356;2023-02-28T00:07:53;6.20;59.00
37052;DHT22;22964;52.272;13.356;2023-02-28T00:10:26;6.20;59.00
37052;DHT22;22964;52.272;13.356;2023-02-28T00:12:53;6.20;59.80
37052;DHT22;22964;52.272;13.356;2023-02-28T00:15:20;6.20;59.10
37052;DHT22;22964;52.272;13.356;2023-02-28T00:17:46;6.20;59.20
37052;DHT22;22964;52.272;13.356;2023-02-28T00:20:13;6.20;59.30
37052;DHT22;22964;52.272;13.356;2023-02-28T00:22:43;6.20;59.40
37052;DHT22;22964;52.272;13.356;2023-02-28T00:25:11;6.20;59.50
37052;DHT22;22964;52.272;13.356;2023-02-28T00:27:39;6.20;59.50
37052;DHT22;22964;52.272;13.356;2023-02-28T00:30:07;6.20;59.60
37052;DHT22;22964;52.272;13.356;2023-02-28T00:32:34;6.20;59.70
37052;DHT22;22964;52.272;13.356;2023-02-28T00:35:01;6.10;59.70
37052;DHT22;22964;52.272;13.356;2023-02-28T00:37:26;6.10;59.70
37052;DHT22;22964;52.272;13.356;2023-02-28T00:39:52;6.10;59.80
37052;DHT22;22964;52.272;13.356;2023-02-28T00:42:18;6.10;59.90
37052;DHT22;22964;52.272;13.356;2023-02-28T00:44:43;6.00;59.90
37052;DHT22;22964;52.272;13.356;2023-02-28T00:47:10;6.00;60.00
37052;DHT22;22964;52.272;13.356;2023-02-28T00:49:36;6.00;60.00
37052;DHT22;22964;52.272;13.356;2023-02-28T00:52:02;6.00;60.00
37052;DHT22;22964;52.272;13.356;2023-02-28T00:54:28;6.00;60.00
37052;DHT22;22964;52.272;13.356;2023-02-28T00:56:53;6.00;60.10
37052;DHT22;22964;52.272;13.356;2023-02-28T00:59:19;6.00;60.10
37052;DHT22;22964;52.272;13.356;2023-02-28T01:01:46;6.00;60.00
37052;DHT22;22964;52.272;13.356;2023-02-28T01:04:12;6.00;60.00
37052;DHT22;22964;52.272;13.356;2023-02-28T01:06:38;6.00;60.00
37052;DHT22;22964;52.272;13.356;2023-02-28T01:09:06;6.00;60.00
37052;DHT22;22964;52.272;13.356;2023-02-28T01:11:32;6.00;60.10
37052;DHT22;22964;52.272;13.356;2023-02-28T01:13:58;6.00;60.10
37052;DHT22;22964;52.272;13.356;2023-02-28T01:16:24;6.00;60.20
37052;DHT22;22964;52.272;13.356;2023-02-28T01:18:50;6.00;60.30
37052;DHT22;22964;52.272;13.356;2023-02-28T01:21:18;6.00;60.30
37052;DHT22;22964;52.272;13.356;2023-02-28T01:23:44;6.00;60.50
37052;DHT22;22964;52.272;13.356;2023-02-28T01:26:21;6.00;60.50
37052;DHT22;22964;52.272;13.356;2023-02-28T01:28:48;6.00;60.60
37052;DHT22;22964;52.272;13.356;2023-02-28T01:31:15;5.90;60.50
37052;DHT22;22964;52.272;13.356;2023-02-28T01:33:41;6.00;60.60
37052;DHT22;22964;52.272;13.356;2023-02-28T01:38:36;5.90;60.70
37052;DHT22;22964;52.272;13.356;2023-02-28T01:41:02;5.90;60.70
37052;DHT22;22964;52.272;13.356;2023-02-28T01:43:30;5.90;60.80
37052;DHT22;22964;52.272;13.356;2023-02-28T01:45:57;5.90;60.90
37052;DHT22;22964;52.272;13.356;2023-02-28T01:48:27;5.90;60.90
37052;DHT22;22964;52.272;13.356;2023-02-28T01:50:57;5.90;61.00
37052;DHT22;22964;52.272;13.356;2023-02-28T01:53:31;5.90;60.90
37052;DHT22;22964;52.272;13.356;2023-02-28T01:55:58;5.80;60.70
37052;DHT22;22964;52.272;13.356;2023-02-28T01:58:24;5.80;60.50
37052;DHT22;22964;52.272;13.356;2023-02-28T02:00:50;5.80;60.60
37052;DHT22;22964;52.272;13.356;2023-02-28T02:03:18;5.70;61.40
37052;DHT22;22964;52.272;13.356;2023-02-28T02:05:45;5.70;61.30
37052;DHT22;22964;52.272;13.356;2023-02-28T02:08:21;5.70;60.20
37052;DHT22;22964;52.272;13.356;2023-02-28T02:30:18;5.30;61.00
37052;DHT22;22964;52.272;13.356;2023-02-28T02:35:43;5.20;60.80
37052;DHT22;22964;52.272;13.356;2023-02-28T02:39:28;5.20;60.80
37052;DHT22;22964;52.272;13.356;2023-02-28T02:41:45;5.10;61.00
37052;DHT22;22964;52.272;13.356;2023-02-28T02:46:44;5.10;60.80
37052;DHT22;22964;52.272;13.356;2023-02-28T02:49:14;5.10;60.90
37052;DHT22;22964;52.272;13.356;2023-02-28T02:51:41;5.10;60.90
37052;DHT22;22964;52.272;13.356;2023-02-28T02:54:17;5.10;60.80
37052;DHT22;22964;52.272;13.356;2023-02-28T02:56:47;5.00;60.80
37052;DHT22;22964;52.272;13.356;2023-02-28T02:59:18;5.00;60.60
37052;DHT22;22964;52.272;13.356;2023-02-28T03:01:53;5.00;60.50
37052;DHT22;22964;52.272;13.356;2023-02-28T03:04:24;4.90;60.30
37052;DHT22;22964;52.272;13.356;2023-02-28T03:06:52;4.90;60.20
37052;DHT22;22964;52.272;13.356;2023-02-28T03:09:22;4.90;60.00
37052;DHT22;22964;52.272;13.356;2023-02-28T03:11:49;4.80;59.90
37052;DHT22;22964;52.272;13.356;2023-02-28T03:14:37;4.80;59.90
37052;DHT22;22964;52.272;13.356;2023-02-28T03:36:53;4.30;60.00
37052;DHT22;22964;52.272;13.356;2023-02-28T03:39:41;4.20;60.10
37052;DHT22;22964;52.272;13.356;2023-02-28T03:42:18;4.10;60.20
37052;DHT22;22964;52.272;13.356;2023-02-28T03:47:21;4.00;60.20
37052;DHT22;22964;52.272;13.356;2023-02-28T03:50:05;4.00;60.20
37052;DHT22;22964;52.272;13.356;2023-02-28T03:52:36;3.90;60.30
37052;DHT22;22964;52.272;13.356;2023-02-28T03:55:09;3.90;60.30
37052;DHT22;22964;52.272;13.356;2023-02-28T04:00:30;3.80;60.30
37052;DHT22;22964;52.272;13.356;2023-02-28T04:02:57;3.70;60.20
37052;DHT22;22964;52.272;13.356;2023-02-28T04:05:23;3.70;60.30
37052;DHT22;22964;52.272;13.356;2023-02-28T04:07:49;3.60;60.30
37052;DHT22;22964;52.272;13.356;2023-02-28T04:10:16;3.60;60.50
37052;DHT22;22964;52.272;13.356;2023-02-28T04:12:42;3.60;60.60
37052;DHT22;22964;52.272;13.356;2023-02-28T04:15:08;3.50;60.70
37052;DHT22;22964;52.272;13.356;2023-02-28T04:17:33;3.50;60.80
37052;DHT22;22964;52.272;13.356;2023-02-28T04:19:59;3.40;60.80
37052;DHT22;22964;52.272;13.356;2023-02-28T04:22:25;3.40;60.80
37052;DHT22;22964;52.272;13.356;2023-02-28T04:24:53;3.30;60.80
37052;DHT22;22964;52.272;13.356;2023-02-28T04:27:20;3.40;61.00
37052;DHT22;22964;52.272;13.356;2023-02-28T04:29:46;3.30;61.00
37052;DHT22;22964;52.272;13.356;2023-02-28T04:32:12;3.30;61.10
37052;DHT22;22964;52.272;13.356;2023-02-28T04:34:38;3.20;61.30
37052;DHT22;22964;52.272;13.356;2023-02-28T04:37:03;3.20;61.50
37052;DHT22;22964;52.272;13.356;2023-02-28T04:39:29;3.20;61.60
37052;DHT22;22964;52.272;13.356;2023-02-28T04:41:55;3.10;61.70
37052;DHT22;22964;52.272;13.356;2023-02-28T04:44:22;3.20;62.00
37052;DHT22;22964;52.272;13.356;2023-02-28T04:46:48;3.10;62.10
37052;DHT22;22964;52.272;13.356;2023-02-28T04:49:14;3.10;62.10
37052;DHT22;22964;52.272;13.356;2023-02-28T04:51:40;3.10;62.20
37052;DHT22;22964;52.272;13.356;2023-02-28T04:54:07;3.10;62.30
37052;DHT22;22964;52.272;13.356;2023-02-28T04:56:33;3.00;62.20
37052;DHT22;22964;52.272;13.356;2023-02-28T04:58:59;3.00;62.20
37052;DHT22;22964;52.272;13.356;2023-02-28T05:01:26;3.00;62.10
37052;DHT22;22964;52.272;13.356;2023-02-28T05:03:54;3.00;62.00
37052;DHT22;22964;52.272;13.356;2023-02-28T05:06:22;2.90;61.80
37052;DHT22;22964;52.272;13.356;2023-02-28T05:08:49;2.90;61.80
37052;DHT22;22964;52.272;13.356;2023-02-28T05:13:41;2.80;61.70
37052;DHT22;22964;52.272;13.356;2023-02-28T05:16:06;2.80;61.90
37052;DHT22;22964;52.272;13.356;2023-02-28T05:18:32;2.80;62.00
37052;DHT22;22964;52.272;13.356;2023-02-28T05:20:59;2.80;62.10
37052;DHT22;22964;52.272;13.356;2023-02-28T05:23:26;2.70;62.20
37052;DHT22;22964;52.272;13.356;2023-02-28T05:25:53;2.70;62.40
37052;DHT22;22964;52.272;13.356;2023-02-28T05:28:19;2.70;62.50
37052;DHT22;22964;52.272;13.356;2023-02-28T05:30:45;2.60;62.50
37052;DHT22;22964;52.272;13.356;2023-02-28T05:33:12;2.60;63.50
37052;DHT22;22964;52.272;13.356;2023-02-28T05:35:41;2.60;62.70
37052;DHT22;22964;52.272;13.356;2023-02-28T05:38:10;2.60;62.90
37052;DHT22;22964;52.272;13.356;2023-02-28T05:40:38;2.60;62.90
37052;DHT22;22964;52.272;13.356;2023-02-28T05:43:05;2.50;63.10
37052;DHT22;22964;52.272;13.356;2023-02-28T05:45:30;2.50;63.20
37052;DHT22;22964;52.272;13.356;2023-02-28T05:47:56;2.50;63.30
37052;DHT22;22964;52.272;13.356;2023-02-28T05:50:22;2.50;63.30
37052;DHT22;22964;52.272;13.356;2023-02-28T05:52:52;2.50;63.30
37052;DHT22;22964;52.272;13.356;2023-02-28T05:55:17;2.50;63.40
37052;DHT22;22964;52.272;13.356;2023-02-28T05:57:44;2.50;63.30
37052;DHT22;22964;52.272;13.356;2023-02-28T06:00:11;2.50;63.20
37052;DHT22;22964;52.272;13.356;2023-02-28T06:02:39;2.40;63.00
37052;DHT22;22964;52.272;13.356;2023-02-28T06:05:15;2.40;62.90
37052;DHT22;22964;52.272;13.356;2023-02-28T06:07:41;2.40;63.00
37052;DHT22;22964;52.272;13.356;2023-02-28T06:10:07;2.30;62.90
37052;DHT22;22964;52.272;13.356;2023-02-28T06:12:33;2.30;63.10
37052;DHT22;22964;52.272;13.356;2023-02-28T06:14:59;2.30;63.30
37052;DHT22;22964;52.272;13.356;2023-02-28T06:17:24;2.30;63.60
37052;DHT22;22964;52.272;13.356;2023-02-28T06:19:50;2.30;63.80
37052;DHT22;22964;52.272;13.356;2023-02-28T06:22:15;2.30;63.80
37052;DHT22;22964;52.272;13.356;2023-02-28T06:24:41;2.30;63.90
37052;DHT22;22964;52.272;13.356;2023-02-28T06:27:07;2.30;64.00
37052;DHT22;22964;52.272;13.356;2023-02-28T06:29:34;2.30;64.10
37052;DHT22;22964;52.272;13.356;2023-02-28T06:32:00;2.30;64.10
37052;DHT22;22964;52.272;13.356;2023-02-28T06:34:26;2.30;64.20
37052;DHT22;22964;52.272;13.356;2023-02-28T06:36:52;2.30;64.30
37052;DHT22;22964;52.272;13.356;2023-02-28T06:39:17;2.30;64.40
37052;DHT22;22964;52.272;13.356;2023-02-28T06:41:43;2.30;64.60
37052;DHT22;22964;52.272;13.356;2023-02-28T06:44:16;2.30;64.80
37052;DHT22;22964;52.272;13.356;2023-02-28T06:46:43;2.40;65.10
37052;DHT22;22964;52.272;13.356;2023-02-28T06:49:10;2.40;65.10
37052;DHT22;22964;52.272;13.356;2023-02-28T06:51:39;2.50;65.20
37052;DHT22;22964;52.272;13.356;2023-02-28T06:54:05;2.50;65.40
37052;DHT22;22964;52.272;13.356;2023-02-28T06:56:34;2.60;65.60
37052;DHT22;22964;52.272;13.356;2023-02-28T06:59:00;2.60;65.70
37052;DHT22;22964;52.272;13.356;2023-02-28T07:01:25;2.60;66.00
37052;DHT22;22964;52.272;13.356;2023-02-28T07:03:54;2.70;67.10
37052;DHT22;22964;52.272;13.356;2023-02-28T07:06:21;2.70;66.50
37052;DHT22;22964;52.272;13.356;2023-02-28T07:08:49;2.80;66.60
37052;DHT22;22964;52.272;13.356;2023-02-28T07:11:14;2.80;66.70
37052;DHT22;22964;52.272;13.356;2023-02-28T07:13:40;2.90;66.80
37052;DHT22;22964;52.272;13.356;2023-02-28T07:16:08;2.90;67.00
37052;DHT22;22964;52.272;13.356;2023-02-28T07:18:35;3.00;67.30
37052;DHT22;22964;52.272;13.356;2023-02-28T07:21:08;3.10;67.60
37052;DHT22;22964;52.272;13.356;2023-02-28T07:23:35;3.10;67.70
37052;DHT22;22964;52.272;13.356;2023-02-28T07:26:01;3.20;67.60
37052;DHT22;22964;52.272;13.356;2023-02-28T07:28:27;3.20;67.70
37052;DHT22;22964;52.272;13.356;2023-02-28T07:30:53;3.30;67.70
37052;DHT22;22964;52.272;13.356;2023-02-28T07:33:18;3.30;67.60
37052;DHT22;22964;52.272;13.356;2023-02-28T07:35:44;3.40;67.50
37052;DHT22;22964;52.272;13.356;2023-02-28T07:38:10;3.50;67.40
37052;DHT22;22964;52.272;13.356;2023-02-28T07:40:37;3.50;67.30
37052;DHT22;22964;52.272;13.356;2023-02-28T07:43:03;3.60;67.40
37052;DHT22;22964;52.272;13.356;2023-02-28T07:45:29;3.60;67.60
37052;DHT22;22964;52.272;13.356;2023-02-28T07:47:57;3.70;67.70
37052;DHT22;22964;52.272;13.356;2023-02-28T07:50:23;3.80;68.00
37052;DHT22;22964;52.272;13.356;2023-02-28T07:52:48;3.80;68.20
37052;DHT22;22964;52.272;13.356;2023-02-28T07:55:14;3.90;68.60
37052;DHT22;22964;52.272;13.356;2023-02-28T07:57:42;4.00;69.00
37052;DHT22;22964;52.272;13.356;2023-02-28T08:00:09;4.10;70.10
37052;DHT22;22964;52.272;13.356;2023-02-28T08:02:39;4.20;69.40
37052;DHT22;22964;52.272;13.356;2023-02-28T08:05:06;4.30;69.20
37052;DHT22;22964;52.272;13.356;2023-02-28T08:07:32;4.40;69.00
37052;DHT22;22964;52.272;13.356;2023-02-28T08:09:59;4.50;68.80
37052;DHT22;22964;52.272;13.356;2023-02-28T08:12:25;4.60;68.30
37052;DHT22;22964;52.272;13.356;2023-02-28T08:14:51;4.60;67.90
37052;DHT22;22964;52.272;13.356;2023-02-28T08:17:16;4.80;67.80
37052;DHT22;22964;52.272;13.356;2023-02-28T08:19:45;4.90;67.80
37052;DHT22;22964;52.272;13.356;2023-02-28T08:22:11;5.00;67.70
37052;DHT22;22964;52.272;13.356;2023-02-28T08:24:36;5.10;67.50
37052;DHT22;22964;52.272;13.356;2023-02-28T08:27:02;5.20;67.20
37052;DHT22;22964;52.272;13.356;2023-02-28T08:29:28;5.30;66.70
37052;DHT22;22964;52.272;13.356;2023-02-28T08:31:55;5.40;66.50
37052;DHT22;22964;52.272;13.356;2023-02-28T08:34:21;5.50;66.20
37052;DHT22;22964;52.272;13.356;2023-02-28T08:36:47;5.60;65.90
37052;DHT22;22964;52.272;13.356;2023-02-28T08:39:13;5.80;65.10
37052;DHT22;22964;52.272;13.356;2023-02-28T08:41:38;5.90;64.60
37052;DHT22;22964;52.272;13.356;2023-02-28T08:44:04;6.00;63.70
37052;DHT22;22964;52.272;13.356;2023-02-28T08:46:30;6.10;63.20
37052;DHT22;22964;52.272;13.356;2023-02-28T08:48:56;6.20;62.90
37052;DHT22;22964;52.272;13.356;2023-02-28T08:51:27;6.30;62.40
37052;DHT22;22964;52.272;13.356;2023-02-28T08:53:54;6.40;61.80
37052;DHT22;22964;52.272;13.356;2023-02-28T08:56:21;6.50;61.60
37052;DHT22;22964;52.272;13.356;2023-02-28T08:58:48;6.60;61.10
37052;DHT22;22964;52.272;13.356;2023-02-28T09:01:19;6.70;60.40
37052;DHT22;22964;52.272;13.356;2023-02-28T09:03:46;6.80;59.80
37052;DHT22;22964;52.272;13.356;2023-02-28T09:06:14;6.90;59.20
37052;DHT22;22964;52.272;13.356;2023-02-28T09:08:40;6.90;59.00
37052;DHT22;22964;52.272;13.356;2023-02-28T09:11:06;7.10;58.70
37052;DHT22;22964;52.272;13.356;2023-02-28T09:13:32;7.20;58.10
37052;DHT22;22964;52.272;13.356;2023-02-28T09:16:00;7.20;57.90
37052;DHT22;22964;52.272;13.356;2023-02-28T09:18:26;7.30;57.50
37052;DHT22;22964;52.272;13.356;2023-02-28T09:20:53;7.40;56.70
37052;DHT22;22964;52.272;13.356;2023-02-28T09:23:19;7.50;56.50
37052;DHT22;22964;52.272;13.356;2023-02-28T09:25:52;7.50;56.60
37052;DHT22;22964;52.272;13.356;2023-02-28T09:28:19;7.60;56.30
37052;DHT22;22964;52.272;13.356;2023-02-28T09:30:46;7.60;57.50
37052;DHT22;22964;52.272;13.356;2023-02-28T09:33:13;7.80;56.60
37052;DHT22;22964;52.272;13.356;2023-02-28T09:35:39;7.90;55.90
37052;DHT22;22964;52.272;13.356;2023-02-28T09:38:04;7.90;55.50
37052;DHT22;22964;52.272;13.356;2023-02-28T09:40:30;8.00;55.00
37052;DHT22;22964;52.272;13.356;2023-02-28T09:42:58;8.10;55.10
37052;DHT22;22964;52.272;13.356;2023-02-28T09:45:36;8.20;53.80
37052;DHT22;22964;52.272;13.356;2023-02-28T09:48:09;8.30;53.60
37052;DHT22;22964;52.272;13.356;2023-02-28T09:50:40;8.40;53.30
37052;DHT22;22964;52.272;13.356;2023-02-28T09:53:28;8.40;52.10
37052;DHT22;22964;52.272;13.356;2023-02-28T09:56:04;8.40;51.60
37052;DHT22;22964;52.272;13.356;2023-02-28T09:58:40;8.50;52.00
37052;DHT22;22964;52.272;13.356;2023-02-28T10:06:54;8.70;52.30
37052;DHT22;22964;52.272;13.356;2023-02-28T10:09:30;8.80;51.30
37052;DHT22;22964;52.272;13.356;2023-02-28T10:12:05;8.80;51.00
37052;DHT22;22964;52.272;13.356;2023-02-28T10:14:33;8.90;50.40
37052;DHT22;22964;52.272;13.356;2023-02-28T10:17:04;8.90;49.80
37052;DHT22;22964;52.272;13.356;2023-02-28T10:19:42;8.90;50.50
37052;DHT22;22964;52.272;13.356;2023-02-28T10:22:17;8.90;49.20
37052;DHT22;22964;52.272;13.356;2023-02-28T10:24:50;8.90;49.80
37052;DHT22;22964;52.272;13.356;2023-02-28T10:29:49;9.00;50.00
37052;DHT22;22964;52.272;13.356;2023-02-28T10:32:24;9.00;50.40
37052;DHT22;22964;52.272;13.356;2023-02-28T10:34:57;9.00;50.70
37052;DHT22;22964;52.272;13.356;2023-02-28T10:37:24;9.10;51.00
37052;DHT22;22964;52.272;13.356;2023-02-28T10:39:50;9.20;50.20
37052;DHT22;22964;52.272;13.356;2023-02-28T10:42:29;9.30;51.30
37052;DHT22;22964;52.272;13.356;2023-02-28T10:45:16;9.30;50.40
37052;DHT22;22964;52.272;13.356;2023-02-28T10:48:03;9.40;50.80
37052;DHT22;22964;52.272;13.356;2023-02-28T10:50:42;9.50;48.20
37052;DHT22;22964;52.272;13.356;2023-02-28T10:53:23;9.60;49.20
37052;DHT22;22964;52.272;13.356;2023-02-28T10:56:03;9.60;49.40
37052;DHT22;22964;52.272;13.356;2023-02-28T10:58:59;9.70;48.70
37052;DHT22;22964;52.272;13.356;2023-02-28T11:07:34;9.90;47.40
37052;DHT22;22964;52.272;13.356;2023-02-28T11:09:37;9.90;48.30
37052;DHT22;22964;52.272;13.356;2023-02-28T11:12:19;9.90;46.70
37052;DHT22;22964;52.272;13.356;2023-02-28T11:14:52;10.00;46.80
37052;DHT22;22964;52.272;13.356;2023-02-28T11:17:21;10.00;47.90
37052;DHT22;22964;52.272;13.356;2023-02-28T11:19:52;10.00;48.40
37052;DHT22;22964;52.272;13.356;2023-02-28T11:22:21;10.10;49.90
37052;DHT22;22964;52.272;13.356;2023-02-28T11:24:51;10.10;48.40
37052;DHT22;22964;52.272;13.356;2023-02-28T11:29:55;10.40;48.60
37052;DHT22;22964;52.272;13.356;2023-02-28T11:32:24;10.60;48.50
37052;DHT22;22964;52.272;13.356;2023-02-28T11:37:38;10.70;47.30
37052;DHT22;22964;52.272;13.356;2023-02-28T11:40:31;10.80;46.60
37052;DHT22;22964;52.272;13.356;2023-02-28T11:43:04;10.80;46.80
37052;DHT22;22964;52.272;13.356;2023-02-28T11:45:58;10.80;47.90
37052;DHT22;22964;52.272;13.356;2023-02-28T11:48:43;10.90;47.40
37052;DHT22;22964;52.272;13.356;2023-02-28T11:56:33;11.10;46.70
37052;DHT22;22964;52.272;13.356;2023-02-28T12:04:29;11.10;47.40
37052;DHT22;22964;52.272;13.356;2023-02-28T12:07:07;11.10;47.70
37052;DHT22;22964;52.272;13.356;2023-02-28T12:18:47;11.20;46.90
37052;DHT22;22964;52.272;13.356;2023-02-28T12:21:35;11.20;47.00
37052;DHT22;22964;52.272;13.356;2023-02-28T12:27:07;11.50;46.90
37052;DHT22;22964;52.272;13.356;2023-02-28T12:29:55;11.60;46.60
37052;DHT22;22964;52.272;13.356;2023-02-28T12:32:41;11.60;44.20
37052;DHT22;22964;52.272;13.356;2023-02-28T12:35:18;11.70;45.70
37052;DHT22;22964;52.272;13.356;2023-02-28T12:37:56;11.70;45.70
37052;DHT22;22964;52.272;13.356;2023-02-28T12:40:34;11.70;45.30
37052;DHT22;22964;52.272;13.356;2023-02-28T12:43:09;11.70;46.30
37052;DHT22;22964;52.272;13.356;2023-02-28T12:45:44;11.80;46.10
37052;DHT22;22964;52.272;13.356;2023-02-28T12:48:17;11.80;45.80
37052;DHT22;22964;52.272;13.356;2023-02-28T12:50:45;11.80;44.80
37052;DHT22;22964;52.272;13.356;2023-02-28T12:58:55;11.80;46.40
37052;DHT22;22964;52.272;13.356;2023-02-28T13:07:14;12.10;44.80
37052;DHT22;22964;52.272;13.356;2023-02-28T13:09:52;12.10;46.00
37052;DHT22;22964;52.272;13.356;2023-02-28T13:12:19;12.30;45.50
37052;DHT22;22964;52.272;13.356;2023-02-28T13:14:46;12.30;44.10
37052;DHT22;22964;52.272;13.356;2023-02-28T13:17:15;12.30;43.10
37052;DHT22;22964;52.272;13.356;2023-02-28T13:25:49;12.20;42.40
37052;DHT22;22964;52.272;13.356;2023-02-28T13:27:50;12.10;43.40
37052;DHT22;22964;52.272;13.356;2023-02-28T13:33:31;12.00;43.60
37052;DHT22;22964;52.272;13.356;2023-02-28T13:38:44;12.00;44.70
37052;DHT22;22964;52.272;13.356;2023-02-28T13:41:40;12.10;45.30
37052;DHT22;22964;52.272;13.356;2023-02-28T13:44:22;12.10;44.70
37052;DHT22;22964;52.272;13.356;2023-02-28T13:49:27;12.30;46.20
37052;DHT22;22964;52.272;13.356;2023-02-28T13:57:53;12.60;43.50
37052;DHT22;22964;52.272;13.356;2023-02-28T14:00:43;12.70;43.70
37052;DHT22;22964;52.272;13.356;2023-02-28T14:06:52;12.60;44.00
37052;DHT22;22964;52.272;13.356;2023-02-28T14:09:24;12.60;44.10
37052;DHT22;22964;52.272;13.356;2023-02-28T14:11:51;12.60;44.70
37052;DHT22;22964;52.272;13.356;2023-02-28T14:17:06;12.60;43.30
37052;DHT22;22964;52.272;13.356;2023-02-28T14:19:37;12.60;42.90
37052;DHT22;22964;52.272;13.356;2023-02-28T14:25:15;12.40;43.80
37052;DHT22;22964;52.272;13.356;2023-02-28T14:28:12;12.40;44.30
37052;DHT22;22964;52.272;13.356;2023-02-28T14:36:20;12.00;43.30
37052;DHT22;22964;52.272;13.356;2023-02-28T14:38:52;11.90;43.60
37052;DHT22;22964;52.272;13.356;2023-02-28T14:43:54;11.80;44.70
37052;DHT22;22964;52.272;13.356;2023-02-28T14:46:23;11.80;45.30
37052;DHT22;22964;52.272;13.356;2023-02-28T14:48:50;11.80;45.00
37052;DHT22;22964;52.272;13.356;2023-02-28T14:51:21;11.80;44.60
37052;DHT22;22964;52.272;13.356;2023-02-28T14:53:51;11.80;44.40
37052;DHT22;22964;52.272;13.356;2023-02-28T14:56:29;11.80;44.90
37052;DHT22;22964;52.272;13.356;2023-02-28T14:58:56;11.80;44.00
37052;DHT22;22964;52.272;13.356;2023-02-28T15:01:24;11.70;44.00
37052;DHT22;22964;52.272;13.356;2023-02-28T15:04:04;11.60;43.50
37052;DHT22;22964;52.272;13.356;2023-02-28T15:06:31;11.50;43.30
37052;DHT22;22964;52.272;13.356;2023-02-28T15:09:17;11.40;43.90
37052;DHT22;22964;52.272;13.356;2023-02-28T15:11:48;11.30;43.60
37052;DHT22;22964;52.272;13.356;2023-02-28T15:14:20;11.30;44.30
37052;DHT22;22964;52.272;13.356;2023-02-28T15:16:52;11.20;43.90
37052;DHT22;22964;52.272;13.356;2023-02-28T15:19:22;11.10;44.10
37052;DHT22;22964;52.272;13.356;2023-02-28T15:22:17;11.00;44.80
37052;DHT22;22964;52.272;13.356;2023-02-28T15:24:46;10.90;45.00
37052;DHT22;22964;52.272;13.356;2023-02-28T15:27:21;10.80;44.80
37052;DHT22;22964;52.272;13.356;2023-02-28T15:29:49;10.60;45.30
37052;DHT22;22964;52.272;13.356;2023-02-28T15:32:39;10.60;45.80
37052;DHT22;22964;52.272;13.356;2023-02-28T15:35:27;10.50;45.40
37052;DHT22;22964;52.272;13.356;2023-02-28T15:38:18;10.40;46.20
37052;DHT22;22964;52.272;13.356;2023-02-28T15:40:46;10.30;46.60
37052;DHT22;22964;52.272;13.356;2023-02-28T15:43:31;10.20;46.70
37052;DHT22;22964;52.272;13.356;2023-02-28T15:46:12;10.10;46.60
37052;DHT22;22964;52.272;13.356;2023-02-28T15:48:54;10.10;46.30
37052;DHT22;22964;52.272;13.356;2023-02-28T15:54:21;9.90;47.20
37052;DHT22;22964;52.272;13.356;2023-02-28T15:56:51;9.90;47.90
37052;DHT22;22964;52.272;13.356;2023-02-28T15:59:26;9.90;47.50
37052;DHT22;22964;52.272;13.356;2023-02-28T16:02:17;9.90;47.50
37052;DHT22;22964;52.272;13.356;2023-02-28T16:07:31;9.80;48.30
37052;DHT22;22964;52.272;13.356;2023-02-28T16:09:57;9.70;48.60
37052;DHT22;22964;52.272;13.356;2023-02-28T16:12:26;9.70;48.80
37052;DHT22;22964;52.272;13.356;2023-02-28T16:14:53;9.60;48.70
37052;DHT22;22964;52.272;13.356;2023-02-28T16:17:25;9.60;48.40
37052;DHT22;22964;52.272;13.356;2023-02-28T16:19:52;9.50;48.30
37052;DHT22;22964;52.272;13.356;2023-02-28T16:22:18;9.50;47.80
37052;DHT22;22964;52.272;13.356;2023-02-28T16:24:43;9.40;48.70
37052;DHT22;22964;52.272;13.356;2023-02-28T16:27:17;9.40;49.10
37052;DHT22;22964;52.272;13.356;2023-02-28T16:29:44;9.30;49.10
37052;DHT22;22964;52.272;13.356;2023-02-28T16:32:14;9.20;48.90
37052;DHT22;22964;52.272;13.356;2023-02-28T16:34:40;9.20;48.80
37052;DHT22;22964;52.272;13.356;2023-02-28T16:37:12;9.10;48.70
37052;DHT22;22964;52.272;13.356;2023-02-28T16:39:38;9.10;48.80
37052;DHT22;22964;52.272;13.356;2023-02-28T16:42:04;9.00;49.20
37052;DHT22;22964;52.272;13.356;2023-02-28T16:44:33;9.00;49.40
37052;DHT22;22964;52.272;13.356;2023-02-28T16:47:00;8.90;49.60
37052;DHT22;22964;52.272;13.356;2023-02-28T16:49:26;8.90;49.80
37052;DHT22;22964;52.272;13.356;2023-02-28T16:51:52;8.90;50.00
37052;DHT22;22964;52.272;13.356;2023-02-28T16:54:18;8.90;50.20
37052;DHT22;22964;52.272;13.356;2023-02-28T16:56:46;8.90;50.20
37052;DHT22;22964;52.272;13.356;2023-02-28T16:59:13;8.80;50.00
37052;DHT22;22964;52.272;13.356;2023-02-28T17:01:40;8.80;49.90
37052;DHT22;22964;52.272;13.356;2023-02-28T17:04:06;8.70;49.90
37052;DHT22;22964;52.272;13.356;2023-02-28T17:06:31;8.80;50.00
37052;DHT22;22964;52.272;13.356;2023-02-28T17:08:58;8.80;50.00
37052;DHT22;22964;52.272;13.356;2023-02-28T17:11:25;8.70;49.90
37052;DHT22;22964;52.272;13.356;2023-02-28T17:13:51;8.70;50.50
37052;DHT22;22964;52.272;13.356;2023-02-28T17:18:56;8.60;49.50
37052;DHT22;22964;52.272;13.356;2023-02-28T17:21:22;8.60;49.50
37052;DHT22;22964;52.272;13.356;2023-02-28T17:23:48;8.50;49.70
37052;DHT22;22964;52.272;13.356;2023-02-28T17:26:15;8.50;49.80
37052;DHT22;22964;52.272;13.356;2023-02-28T17:28:43;8.40;49.80
37052;DHT22;22964;52.272;13.356;2023-02-28T17:31:09;8.30;49.90
37052;DHT22;22964;52.272;13.356;2023-02-28T17:33:35;8.30;49.90
37052;DHT22;22964;52.272;13.356;2023-02-28T17:36:01;8.30;49.90
37052;DHT22;22964;52.272;13.356;2023-02-28T17:38:27;8.20;50.00
37052;DHT22;22964;52.272;13.356;2023-02-28T17:40:53;8.10;49.90
37052;DHT22;22964;52.272;13.356;2023-02-28T17:43:26;8.10;50.00
37052;DHT22;22964;52.272;13.356;2023-02-28T17:45:53;8.00;50.00
37052;DHT22;22964;52.272;13.356;2023-02-28T17:48:19;8.00;50.00
37052;DHT22;22964;52.272;13.356;2023-02-28T17:50:45;7.90;50.00
37052;DHT22;22964;52.272;13.356;2023-02-28T17:53:11;7.80;50.00
37052;DHT22;22964;52.272;13.356;2023-02-28T17:55:37;7.80;50.10
37052;DHT22;22964;52.272;13.356;2023-02-28T17:58:03;7.80;50.20
37052;DHT22;22964;52.272;13.356;2023-02-28T18:00:29;7.70;50.30
37052;DHT22;22964;52.272;13.356;2023-02-28T18:02:57;7.60;50.40
37052;DHT22;22964;52.272;13.356;2023-02-28T18:05:23;7.50;50.40
37052;DHT22;22964;52.272;13.356;2023-02-28T18:07:49;7.50;50.40
37052;DHT22;22964;52.272;13.356;2023-02-28T18:10:19;7.50;50.50
37052;DHT22;22964;52.272;13.356;2023-02-28T18:12:50;7.40;50.60
37052;DHT22;22964;52.272;13.356;2023-02-28T18:15:18;7.30;50.60
37052;DHT22;22964;52.272;13.356;2023-02-28T18:17:45;7.30;50.60